sensor_id;sensor_type;location;lat;lon;timestamp;pressure;altitude;pressure_sealevel;temperature;humidity
63339;BME280;70568;51.378;-1.342;2024-01-16T00:01:24;99894.41;;;-2.64;27.68
63339;BME280;70568;51.378;-1.342;2024-01-16T00:03:51;99893.13;;;-1.66;27.70
63339;BME280;70568;51.378;-1.342;2024-01-16T00:06:18;99889.90;;;-1.74;27.20
63339;BME280;70568;51.378;-1.342;2024-01-16T00:08:45;99887.00;;;-0.95;26.82
63339;BME280;70568;51.378;-1.342;2024-01-16T00:11:12;99884.10;;;-1.65;26.82
63339;BME280;70568;51.378;-1.342;2024-01-16T00:13:38;99880.52;;;-2.59;27.02
63339;BME280;70568;51.378;-1.342;2024-01-16T00:16:06;99876.79;;;-1.87;25.68
63339;BME280;70568;51.378;-1.342;2024-01-16T00:18:34;99875.23;;;0.34;24.66
63339;BME280;70568;51.378;-1.342;2024-01-16T00:21:01;99874.22;;;-0.84;24.99
63339;BME280;70568;51.378;-1.342;2024-01-16T00:23:29;99872.24;;;-1.30;25.38
63339;BME280;70568;51.378;-1.342;2024-01-16T00:25:56;99874.47;;;0.03;24.83
63339;BME280;70568;51.378;-1.342;2024-01-16T00:28:23;99874.47;;;0.37;24.50
63339;BME280;70568;51.378;-1.342;2024-01-16T00:30:50;99870.82;;;-1.83;24.90
63339;BME280;70568;51.378;-1.342;2024-01-16T00:33:17;99868.23;;;-1.16;24.78
63339;BME280;70568;51.378;-1.342;2024-01-16T00:35:44;99867.35;;;0.44;24.39
63339;BME280;70568;51.378;-1.342;2024-01-16T00:38:11;99863.10;;;-2.86;24.97
63339;BME280;70568;51.378;-1.342;2024-01-16T00:40:37;99859.67;;;-2.15;25.03
63339;BME280;70568;51.378;-1.342;2024-01-16T00:43:04;99856.74;;;-0.12;24.14
63339;BME280;70568;51.378;-1.342;2024-01-16T00:45:31;99857.30;;;-1.35;24.16
63339;BME280;70568;51.378;-1.342;2024-01-16T00:47:58;99859.88;;;-1.57;24.34
63339;BME280;70568;51.378;-1.342;2024-01-16T00:50:25;99854.22;;;-1.04;24.01
63339;BME280;70568;51.378;-1.342;2024-01-16T00:52:52;99851.24;;;-0.70;23.72
63339;BME280;70568;51.378;-1.342;2024-01-16T00:55:19;99845.14;;;-1.08;23.98
63339;BME280;70568;51.378;-1.342;2024-01-16T00:57:45;99840.44;;;-0.48;23.97
63339;BME280;70568;51.378;-1.342;2024-01-16T01:00:12;99843.10;;;0.84;23.54
63339;BME280;70568;51.378;-1.342;2024-01-16T01:02:38;99840.76;;;1.02;24.47
63339;BME280;70568;51.378;-1.342;2024-01-16T01:05:07;99837.10;;;-1.43;25.53
63339;BME280;70568;51.378;-1.342;2024-01-16T01:07:34;99839.90;;;-0.98;25.85
63339;BME280;70568;51.378;-1.342;2024-01-16T01:10:02;99840.94;;;-0.73;25.80
63339;BME280;70568;51.378;-1.342;2024-01-16T01:12:28;99844.38;;;-2.15;25.77
63339;BME280;70568;51.378;-1.342;2024-01-16T01:14:55;99840.90;;;-0.16;25.28
63339;BME280;70568;51.378;-1.342;2024-01-16T01:17:22;99842.13;;;-1.03;25.52
63339;BME280;70568;51.378;-1.342;2024-01-16T01:19:48;99839.18;;;-0.70;26.06
63339;BME280;70568;51.378;-1.342;2024-01-16T01:22:16;99838.51;;;-1.75;26.44
63339;BME280;70568;51.378;-1.342;2024-01-16T01:24:44;99837.10;;;-1.45;26.71
63339;BME280;70568;51.378;-1.342;2024-01-16T01:27:10;99832.63;;;-1.76;26.74
63339;BME280;70568;51.378;-1.342;2024-01-16T01:29:38;99829.43;;;-0.26;25.90
63339;BME280;70568;51.378;-1.342;2024-01-16T01:32:05;99828.86;;;-1.19;25.80
63339;BME280;70568;51.378;-1.342;2024-01-16T01:34:32;99829.22;;;-1.36;25.47
63339;BME280;70568;51.378;-1.342;2024-01-16T01:36:59;99831.97;;;0.29;25.52
63339;BME280;70568;51.378;-1.342;2024-01-16T01:39:26;99835.53;;;-0.47;26.29
63339;BME280;70568;51.378;-1.342;2024-01-16T01:41:52;99839.83;;;-2.22;27.73
63339;BME280;70568;51.378;-1.342;2024-01-16T01:44:19;99840.88;;;-1.28;28.68
63339;BME280;70568;51.378;-1.342;2024-01-16T01:46:46;99837.67;;;-2.72;29.53
63339;BME280;70568;51.378;-1.342;2024-01-16T01:49:14;99835.78;;;-2.25;29.69
63339;BME280;70568;51.378;-1.342;2024-01-16T01:51:43;99834.93;;;-2.79;29.69
63339;BME280;70568;51.378;-1.342;2024-01-16T01:54:11;99837.77;;;-3.90;29.57
63339;BME280;70568;51.378;-1.342;2024-01-16T01:56:39;99836.81;;;-2.58;28.59
63339;BME280;70568;51.378;-1.342;2024-01-16T01:59:09;99828.21;;;-2.81;27.55
63339;BME280;70568;51.378;-1.342;2024-01-16T02:01:36;99826.07;;;-1.07;26.70
63339;BME280;70568;51.378;-1.342;2024-01-16T02:04:04;99827.10;;;-1.07;27.36
63339;BME280;70568;51.378;-1.342;2024-01-16T02:06:33;99826.15;;;-1.30;27.67
63339;BME280;70568;51.378;-1.342;2024-01-16T02:09:00;99825.21;;;-0.98;27.50
63339;BME280;70568;51.378;-1.342;2024-01-16T02:11:27;99827.67;;;-1.47;28.08
63339;BME280;70568;51.378;-1.342;2024-01-16T02:13:53;99827.53;;;-3.30;28.57
63339;BME280;70568;51.378;-1.342;2024-01-16T02:16:20;99830.10;;;-2.89;29.21
63339;BME280;70568;51.378;-1.342;2024-01-16T02:18:48;99829.17;;;-3.20;29.51
63339;BME280;70568;51.378;-1.342;2024-01-16T02:21:18;99826.19;;;-2.54;29.07
63339;BME280;70568;51.378;-1.342;2024-01-16T02:23:45;99827.96;;;-2.32;28.82
63339;BME280;70568;51.378;-1.342;2024-01-16T02:26:11;99823.86;;;-2.53;29.00
63339;BME280;70568;51.378;-1.342;2024-01-16T02:28:39;99823.70;;;-3.54;29.26
63339;BME280;70568;51.378;-1.342;2024-01-16T02:31:07;99830.85;;;-3.07;29.81
63339;BME280;70568;51.378;-1.342;2024-01-16T02:33:33;99833.75;;;-2.43;30.13
63339;BME280;70568;51.378;-1.342;2024-01-16T02:36:01;99836.95;;;-3.38;29.74
63339;BME280;70568;51.378;-1.342;2024-01-16T02:38:29;99834.88;;;-1.47;29.42
63339;BME280;70568;51.378;-1.342;2024-01-16T02:40:55;99829.32;;;-2.66;29.88
63339;BME280;70568;51.378;-1.342;2024-01-16T02:43:22;99827.47;;;-2.65;30.00
63339;BME280;70568;51.378;-1.342;2024-01-16T02:45:48;99821.88;;;-2.80;30.07
63339;BME280;70568;51.378;-1.342;2024-01-16T02:48:15;99820.44;;;-4.33;30.16
63339;BME280;70568;51.378;-1.342;2024-01-16T02:50:43;99823.80;;;-2.40;29.88
63339;BME280;70568;51.378;-1.342;2024-01-16T02:53:10;99824.72;;;-2.85;29.84
63339;BME280;70568;51.378;-1.342;2024-01-16T02:55:37;99821.52;;;-2.38;29.42
63339;BME280;70568;51.378;-1.342;2024-01-16T02:58:04;99816.87;;;-2.54;29.00
63339;BME280;70568;51.378;-1.342;2024-01-16T03:00:30;99816.80;;;-3.14;28.72
63339;BME280;70568;51.378;-1.342;2024-01-16T03:02:57;99814.47;;;-3.89;28.21
63339;BME280;70568;51.378;-1.342;2024-01-16T03:05:24;99807.81;;;-1.84;27.67
63339;BME280;70568;51.378;-1.342;2024-01-16T03:07:51;99807.81;;;-3.01;28.59
63339;BME280;70568;51.378;-1.342;2024-01-16T03:10:17;99807.33;;;-2.76;29.67
63339;BME280;70568;51.378;-1.342;2024-01-16T03:12:45;99809.92;;;-2.34;30.30
63339;BME280;70568;51.378;-1.342;2024-01-16T03:15:11;99803.24;;;-3.58;30.61
63339;BME280;70568;51.378;-1.342;2024-01-16T03:17:37;99800.21;;;-3.21;30.30
63339;BME280;70568;51.378;-1.342;2024-01-16T03:20:06;99796.60;;;-3.07;29.78
63339;BME280;70568;51.378;-1.342;2024-01-16T03:22:32;99793.57;;;-2.92;29.46
63339;BME280;70568;51.378;-1.342;2024-01-16T03:24:59;99785.95;;;-2.61;28.43
63339;BME280;70568;51.378;-1.342;2024-01-16T03:27:26;99781.07;;;-2.74;27.52
63339;BME280;70568;51.378;-1.342;2024-01-16T03:29:54;99777.05;;;-2.19;27.43
63339;BME280;70568;51.378;-1.342;2024-01-16T03:32:21;99776.80;;;-2.24;27.40
63339;BME280;70568;51.378;-1.342;2024-01-16T03:34:48;99772.08;;;-2.69;27.49
63339;BME280;70568;51.378;-1.342;2024-01-16T03:37:16;99763.40;;;-1.49;27.01
63339;BME280;70568;51.378;-1.342;2024-01-16T03:39:44;99761.86;;;-2.07;26.60
63339;BME280;70568;51.378;-1.342;2024-01-16T03:42:11;99761.41;;;-2.18;26.19
63339;BME280;70568;51.378;-1.342;2024-01-16T03:44:38;99763.64;;;-2.14;26.02
63339;BME280;70568;51.378;-1.342;2024-01-16T03:47:06;99763.71;;;-0.96;25.86
63339;BME280;70568;51.378;-1.342;2024-01-16T03:49:32;99760.00;;;-1.58;26.39
63339;BME280;70568;51.378;-1.342;2024-01-16T03:52:00;99758.99;;;-2.07;26.38
63339;BME280;70568;51.378;-1.342;2024-01-16T03:54:27;99756.88;;;-1.69;26.14
63339;BME280;70568;51.378;-1.342;2024-01-16T03:56:54;99753.30;;;-1.41;25.92
63339;BME280;70568;51.378;-1.342;2024-01-16T03:59:21;99752.28;;;-0.95;25.86
63339;BME280;70568;51.378;-1.342;2024-01-16T04:01:47;99749.51;;;-1.82;26.03
63339;BME280;70568;51.378;-1.342;2024-01-16T04:04:14;99745.75;;;-1.63;26.27
63339;BME280;70568;51.378;-1.342;2024-01-16T04:06:41;99740.88;;;-0.80;26.74
63339;BME280;70568;51.378;-1.342;2024-01-16T04:09:08;99741.77;;;-2.28;27.15
63339;BME280;70568;51.378;-1.342;2024-01-16T04:11:35;99739.34;;;-1.74;27.10
63339;BME280;70568;51.378;-1.342;2024-01-16T04:14:02;99733.32;;;-1.82;27.20
63339;BME280;70568;51.378;-1.342;2024-01-16T04:16:29;99734.87;;;-1.19;26.78
63339;BME280;70568;51.378;-1.342;2024-01-16T04:18:55;99734.21;;;-2.23;26.41
63339;BME280;70568;51.378;-1.342;2024-01-16T04:21:21;99731.31;;;-1.52;26.13
63339;BME280;70568;51.378;-1.342;2024-01-16T04:23:48;99726.76;;;-1.96;26.45
63339;BME280;70568;51.378;-1.342;2024-01-16T04:26:15;99727.37;;;-2.09;27.04
63339;BME280;70568;51.378;-1.342;2024-01-16T04:28:42;99722.58;;;-2.72;27.59
63339;BME280;70568;51.378;-1.342;2024-01-16T04:31:09;99724.02;;;-1.85;28.12
63339;BME280;70568;51.378;-1.342;2024-01-16T04:33:35;99716.91;;;-2.19;28.01
63339;BME280;70568;51.378;-1.342;2024-01-16T04:36:02;99718.24;;;-2.54;27.88
63339;BME280;70568;51.378;-1.342;2024-01-16T04:38:29;99714.61;;;-1.26;27.74
63339;BME280;70568;51.378;-1.342;2024-01-16T04:40:56;99712.31;;;-2.72;27.69
63339;BME280;70568;51.378;-1.342;2024-01-16T04:43:23;99710.23;;;-1.08;27.65
63339;BME280;70568;51.378;-1.342;2024-01-16T04:45:49;99709.55;;;-2.01;27.89
63339;BME280;70568;51.378;-1.342;2024-01-16T04:48:16;99710.93;;;-1.95;28.21
63339;BME280;70568;51.378;-1.342;2024-01-16T04:50:44;99708.31;;;-3.21;28.73
63339;BME280;70568;51.378;-1.342;2024-01-16T04:53:10;99708.16;;;-2.69;28.81
63339;BME280;70568;51.378;-1.342;2024-01-16T04:55:37;99705.01;;;-2.19;28.72
63339;BME280;70568;51.378;-1.342;2024-01-16T04:58:03;99700.52;;;-2.32;28.95
63339;BME280;70568;51.378;-1.342;2024-01-16T05:00:30;99698.53;;;-2.38;28.86
63339;BME280;70568;51.378;-1.342;2024-01-16T05:02:57;99689.95;;;-3.58;28.72
63339;BME280;70568;51.378;-1.342;2024-01-16T05:05:24;99684.47;;;-2.74;28.04
63339;BME280;70568;51.378;-1.342;2024-01-16T05:07:50;99682.59;;;-4.09;28.32
63339;BME280;70568;51.378;-1.342;2024-01-16T05:10:17;99676.62;;;-2.80;27.31
63339;BME280;70568;51.378;-1.342;2024-01-16T05:12:44;99673.04;;;-2.97;27.58
63339;BME280;70568;51.378;-1.342;2024-01-16T05:15:11;99668.47;;;-2.43;26.65
63339;BME280;70568;51.378;-1.342;2024-01-16T05:17:38;99664.43;;;-1.31;26.06
63339;BME280;70568;51.378;-1.342;2024-01-16T05:20:05;99665.08;;;-1.13;25.67
63339;BME280;70568;51.378;-1.342;2024-01-16T05:22:32;99668.11;;;-1.27;25.70
63339;BME280;70568;51.378;-1.342;2024-01-16T05:24:59;99673.62;;;-1.28;26.06
63339;BME280;70568;51.378;-1.342;2024-01-16T05:27:26;99676.59;;;-1.66;27.07
63339;BME280;70568;51.378;-1.342;2024-01-16T05:29:53;99673.91;;;-1.72;28.32
63339;BME280;70568;51.378;-1.342;2024-01-16T05:32:20;99670.20;;;-2.90;29.02
63339;BME280;70568;51.378;-1.342;2024-01-16T05:34:47;99664.74;;;-2.32;29.17
63339;BME280;70568;51.378;-1.342;2024-01-16T05:37:14;99658.19;;;-3.24;28.99
63339;BME280;70568;51.378;-1.342;2024-01-16T05:39:40;99657.09;;;-3.17;28.65
63339;BME280;70568;51.378;-1.342;2024-01-16T05:42:07;99659.00;;;-3.27;28.42
63339;BME280;70568;51.378;-1.342;2024-01-16T05:44:33;99653.35;;;-2.46;27.84
63339;BME280;70568;51.378;-1.342;2024-01-16T05:47:00;99650.83;;;-1.84;27.67
63339;BME280;70568;51.378;-1.342;2024-01-16T05:49:27;99643.99;;;-2.68;27.70
63339;BME280;70568;51.378;-1.342;2024-01-16T05:51:53;99640.54;;;-2.13;27.62
63339;BME280;70568;51.378;-1.342;2024-01-16T05:54:20;99637.31;;;-2.12;27.23
63339;BME280;70568;51.378;-1.342;2024-01-16T05:56:47;99637.49;;;-0.93;27.70
63339;BME280;70568;51.378;-1.342;2024-01-16T05:59:14;99638.07;;;-2.74;28.29
63339;BME280;70568;51.378;-1.342;2024-01-16T06:01:40;99635.48;;;-1.94;28.98
63339;BME280;70568;51.378;-1.342;2024-01-16T06:04:07;99635.47;;;-2.55;29.20
63339;BME280;70568;51.378;-1.342;2024-01-16T06:06:33;99635.82;;;-2.34;29.43
63339;BME280;70568;51.378;-1.342;2024-01-16T06:09:00;99630.18;;;-2.85;29.61
63339;BME280;70568;51.378;-1.342;2024-01-16T06:11:31;99626.42;;;-2.63;29.24
63339;BME280;70568;51.378;-1.342;2024-01-16T06:13:57;99626.87;;;-2.15;28.70
63339;BME280;70568;51.378;-1.342;2024-01-16T06:16:25;99626.83;;;-2.51;28.77
63339;BME280;70568;51.378;-1.342;2024-01-16T06:18:52;99627.41;;;-3.33;28.77
63339;BME280;70568;51.378;-1.342;2024-01-16T06:21:18;99627.96;;;-3.31;28.36
63339;BME280;70568;51.378;-1.342;2024-01-16T06:23:45;99622.06;;;-4.00;28.05
63339;BME280;70568;51.378;-1.342;2024-01-16T06:26:12;99627.88;;;-3.56;27.97
63339;BME280;70568;51.378;-1.342;2024-01-16T06:28:40;99626.68;;;-3.47;28.01
63339;BME280;70568;51.378;-1.342;2024-01-16T06:31:07;99626.49;;;-1.62;27.25
63339;BME280;70568;51.378;-1.342;2024-01-16T06:33:33;99633.08;;;-1.78;26.77
63339;BME280;70568;51.378;-1.342;2024-01-16T06:36:01;99637.21;;;-2.49;27.99
63339;BME280;70568;51.378;-1.342;2024-01-16T06:38:28;99639.85;;;-1.68;27.76
63339;BME280;70568;51.378;-1.342;2024-01-16T06:40:55;99641.94;;;-4.33;28.22
63339;BME280;70568;51.378;-1.342;2024-01-16T06:43:21;99635.81;;;-2.29;27.51
63339;BME280;70568;51.378;-1.342;2024-01-16T06:45:48;99637.17;;;-2.89;27.48
63339;BME280;70568;51.378;-1.342;2024-01-16T06:48:15;99636.89;;;-1.73;26.52
63339;BME280;70568;51.378;-1.342;2024-01-16T06:50:43;99634.72;;;-1.36;26.73
63339;BME280;70568;51.378;-1.342;2024-01-16T06:53:10;99630.63;;;-2.18;26.40
63339;BME280;70568;51.378;-1.342;2024-01-16T06:55:37;99629.57;;;-3.67;27.40
63339;BME280;70568;51.378;-1.342;2024-01-16T06:58:04;99630.92;;;-5.41;27.74
63339;BME280;70568;51.378;-1.342;2024-01-16T07:00:30;99632.68;;;-4.64;27.89
63339;BME280;70568;51.378;-1.342;2024-01-16T07:02:57;99634.80;;;-4.92;26.90
63339;BME280;70568;51.378;-1.342;2024-01-16T07:05:24;99629.11;;;-3.94;26.14
63339;BME280;70568;51.378;-1.342;2024-01-16T07:07:50;99626.95;;;-2.16;25.68
63339;BME280;70568;51.378;-1.342;2024-01-16T07:10:17;99625.31;;;-2.09;25.53
63339;BME280;70568;51.378;-1.342;2024-01-16T07:12:45;99623.07;;;-1.49;25.20
63339;BME280;70568;51.378;-1.342;2024-01-16T07:15:12;99614.87;;;-2.49;25.04
63339;BME280;70568;51.378;-1.342;2024-01-16T07:17:39;99611.16;;;-1.13;25.29
63339;BME280;70568;51.378;-1.342;2024-01-16T07:20:07;99613.34;;;-2.44;26.02
63339;BME280;70568;51.378;-1.342;2024-01-16T07:22:36;99612.81;;;-3.36;25.72
63339;BME280;70568;51.378;-1.342;2024-01-16T07:25:04;99612.05;;;-3.55;25.73
63339;BME280;70568;51.378;-1.342;2024-01-16T07:27:31;99606.99;;;-1.61;24.93
63339;BME280;70568;51.378;-1.342;2024-01-16T07:29:57;99604.52;;;-1.85;24.64
63339;BME280;70568;51.378;-1.342;2024-01-16T07:32:24;99601.43;;;-2.31;25.86
63339;BME280;70568;51.378;-1.342;2024-01-16T07:34:51;99601.85;;;-3.68;26.00
63339;BME280;70568;51.378;-1.342;2024-01-16T07:37:19;99603.78;;;-4.87;26.46
63339;BME280;70568;51.378;-1.342;2024-01-16T07:39:46;99603.57;;;-4.98;26.52
63339;BME280;70568;51.378;-1.342;2024-01-16T07:42:13;99600.27;;;-4.70;27.11
63339;BME280;70568;51.378;-1.342;2024-01-16T07:44:40;99595.40;;;-4.86;27.54
63339;BME280;70568;51.378;-1.342;2024-01-16T07:47:06;99594.65;;;-4.55;27.21
63339;BME280;70568;51.378;-1.342;2024-01-16T07:49:33;99594.83;;;-5.43;27.32
63339;BME280;70568;51.378;-1.342;2024-01-16T07:51:59;99593.73;;;-5.33;26.93
63339;BME280;70568;51.378;-1.342;2024-01-16T07:54:26;99590.79;;;-3.53;25.93
63339;BME280;70568;51.378;-1.342;2024-01-16T07:56:53;99586.61;;;-3.06;25.87
63339;BME280;70568;51.378;-1.342;2024-01-16T07:59:19;99584.99;;;-2.99;25.89
63339;BME280;70568;51.378;-1.342;2024-01-16T08:01:45;99585.77;;;-3.22;25.90
63339;BME280;70568;51.378;-1.342;2024-01-16T08:04:13;99587.41;;;-1.94;25.08
63339;BME280;70568;51.378;-1.342;2024-01-16T08:06:40;99590.00;;;-3.32;26.16
63339;BME280;70568;51.378;-1.342;2024-01-16T08:09:07;99591.59;;;-1.95;25.97
63339;BME280;70568;51.378;-1.342;2024-01-16T08:11:34;99583.25;;;-0.85;25.21
63339;BME280;70568;51.378;-1.342;2024-01-16T08:14:01;99579.01;;;-1.72;25.26
63339;BME280;70568;51.378;-1.342;2024-01-16T08:16:28;99576.85;;;-1.63;25.26
63339;BME280;70568;51.378;-1.342;2024-01-16T08:18:56;99582.29;;;-1.13;25.23
63339;BME280;70568;51.378;-1.342;2024-01-16T08:21:23;99575.94;;;-0.77;26.09
63339;BME280;70568;51.378;-1.342;2024-01-16T08:23:50;99578.50;;;-1.46;26.66
63339;BME280;70568;51.378;-1.342;2024-01-16T08:26:18;99574.10;;;-1.19;26.79
63339;BME280;70568;51.378;-1.342;2024-01-16T08:28:45;99570.58;;;-2.18;27.40
63339;BME280;70568;51.378;-1.342;2024-01-16T08:31:12;99563.73;;;-3.02;27.62
63339;BME280;70568;51.378;-1.342;2024-01-16T08:33:39;99557.95;;;-3.16;26.90
63339;BME280;70568;51.378;-1.342;2024-01-16T08:36:06;99557.14;;;-4.64;27.42
63339;BME280;70568;51.378;-1.342;2024-01-16T08:38:33;99553.92;;;-3.15;27.41
63339;BME280;70568;51.378;-1.342;2024-01-16T08:41:00;99550.55;;;-3.33;27.31
63339;BME280;70568;51.378;-1.342;2024-01-16T08:43:28;99543.64;;;-2.37;27.15
63339;BME280;70568;51.378;-1.342;2024-01-16T08:45:55;99540.67;;;-2.26;25.96
63339;BME280;70568;51.378;-1.342;2024-01-16T08:48:22;99543.77;;;-1.52;25.62
63339;BME280;70568;51.378;-1.342;2024-01-16T08:50:50;99544.14;;;-1.33;26.02
63339;BME280;70568;51.378;-1.342;2024-01-16T08:53:17;99544.15;;;-1.08;25.82
63339;BME280;70568;51.378;-1.342;2024-01-16T08:55:45;99542.96;;;-1.48;26.20
63339;BME280;70568;51.378;-1.342;2024-01-16T08:58:12;99544.15;;;-1.92;26.59
63339;BME280;70568;51.378;-1.342;2024-01-16T09:00:39;99541.01;;;-2.06;26.47
63339;BME280;70568;51.378;-1.342;2024-01-16T09:03:06;99544.86;;;-0.92;25.90
63339;BME280;70568;51.378;-1.342;2024-01-16T09:05:33;99547.03;;;-0.56;26.53
63339;BME280;70568;51.378;-1.342;2024-01-16T09:07:59;99549.94;;;-1.34;26.84
63339;BME280;70568;51.378;-1.342;2024-01-16T09:10:26;99548.75;;;-1.55;27.71
63339;BME280;70568;51.378;-1.342;2024-01-16T09:12:53;99544.53;;;-1.97;28.46
63339;BME280;70568;51.378;-1.342;2024-01-16T09:15:20;99543.75;;;-1.83;28.29
63339;BME280;70568;51.378;-1.342;2024-01-16T09:17:48;99540.74;;;-2.33;27.98
63339;BME280;70568;51.378;-1.342;2024-01-16T09:20:15;99535.36;;;-1.06;27.56
63339;BME280;70568;51.378;-1.342;2024-01-16T09:22:43;99537.45;;;-1.28;28.37
63339;BME280;70568;51.378;-1.342;2024-01-16T09:25:11;99538.89;;;-2.25;28.52
63339;BME280;70568;51.378;-1.342;2024-01-16T09:27:38;99539.17;;;-0.45;27.93
63339;BME280;70568;51.378;-1.342;2024-01-16T09:30:06;99541.34;;;-1.27;28.38
63339;BME280;70568;51.378;-1.342;2024-01-16T09:32:33;99543.84;;;-1.39;29.12
63339;BME280;70568;51.378;-1.342;2024-01-16T09:35:01;99541.43;;;-2.88;29.93
63339;BME280;70568;51.378;-1.342;2024-01-16T09:37:28;99536.78;;;-2.24;30.14
63339;BME280;70568;51.378;-1.342;2024-01-16T09:39:55;99536.93;;;-1.96;29.54
63339;BME280;70568;51.378;-1.342;2024-01-16T09:42:23;99538.70;;;-0.80;28.74
63339;BME280;70568;51.378;-1.342;2024-01-16T09:44:52;99535.43;;;-2.31;29.41
63339;BME280;70568;51.378;-1.342;2024-01-16T09:47:22;99531.38;;;-2.07;28.26
63339;BME280;70568;51.378;-1.342;2024-01-16T09:49:50;99529.51;;;-0.89;28.35
63339;BME280;70568;51.378;-1.342;2024-01-16T09:52:18;99530.95;;;-1.10;27.64
63339;BME280;70568;51.378;-1.342;2024-01-16T09:54:45;99529.25;;;-0.94;27.72
63339;BME280;70568;51.378;-1.342;2024-01-16T09:57:13;99527.94;;;-0.09;27.04
63339;BME280;70568;51.378;-1.342;2024-01-16T09:59:43;99525.78;;;0.70;26.85
63339;BME280;70568;51.378;-1.342;2024-01-16T10:02:11;99522.97;;;0.34;27.39
63339;BME280;70568;51.378;-1.342;2024-01-16T10:04:40;99520.34;;;-0.34;27.02
63339;BME280;70568;51.378;-1.342;2024-01-16T10:07:08;99515.21;;;0.71;27.31
63339;BME280;70568;51.378;-1.342;2024-01-16T10:09:38;99513.62;;;-0.66;27.35
63339;BME280;70568;51.378;-1.342;2024-01-16T10:12:06;99507.77;;;0.89;26.31
63339;BME280;70568;51.378;-1.342;2024-01-16T10:14:34;99505.91;;;1.11;25.96
63339;BME280;70568;51.378;-1.342;2024-01-16T10:17:02;99509.10;;;-0.48;26.61
63339;BME280;70568;51.378;-1.342;2024-01-16T10:19:30;99506.12;;;1.45;26.05
63339;BME280;70568;51.378;-1.342;2024-01-16T10:22:01;99503.50;;;0.45;26.21
63339;BME280;70568;51.378;-1.342;2024-01-16T10:24:29;99506.24;;;-0.69;27.00
63339;BME280;70568;51.378;-1.342;2024-01-16T10:26:58;99505.69;;;0.20;27.23
63339;BME280;70568;51.378;-1.342;2024-01-16T10:29:25;99504.31;;;0.48;27.47
63339;BME280;70568;51.378;-1.342;2024-01-16T10:31:52;99505.64;;;-0.46;27.68
63339;BME280;70568;51.378;-1.342;2024-01-16T10:34:20;99509.24;;;1.11;27.23
63339;BME280;70568;51.378;-1.342;2024-01-16T10:36:49;99508.97;;;0.51;27.73
63339;BME280;70568;51.378;-1.342;2024-01-16T10:39:16;99506.26;;;0.39;28.22
63339;BME280;70568;51.378;-1.342;2024-01-16T10:41:53;99508.60;;;0.88;27.72
63339;BME280;70568;51.378;-1.342;2024-01-16T10:44:21;99505.20;;;0.45;27.85
63339;BME280;70568;51.378;-1.342;2024-01-16T10:46:49;99510.88;;;1.00;28.82
63339;BME280;70568;51.378;-1.342;2024-01-16T10:49:16;99503.80;;;-0.48;28.79
63339;BME280;70568;51.378;-1.342;2024-01-16T10:51:44;99500.22;;;-0.47;29.25
63339;BME280;70568;51.378;-1.342;2024-01-16T10:54:13;99502.65;;;-0.66;28.36
63339;BME280;70568;51.378;-1.342;2024-01-16T10:56:44;99498.36;;;0.05;28.65
63339;BME280;70568;51.378;-1.342;2024-01-16T10:59:18;99492.43;;;-1.69;28.99
63339;BME280;70568;51.378;-1.342;2024-01-16T11:01:49;99490.38;;;-2.13;29.90
63339;BME280;70568;51.378;-1.342;2024-01-16T11:04:18;99488.55;;;-1.04;29.57
63339;BME280;70568;51.378;-1.342;2024-01-16T11:06:47;99486.95;;;-1.01;29.98
63339;BME280;70568;51.378;-1.342;2024-01-16T11:09:18;99480.86;;;-1.27;29.13
63339;BME280;70568;51.378;-1.342;2024-01-16T11:11:46;99478.57;;;-0.77;29.88
63339;BME280;70568;51.378;-1.342;2024-01-16T11:14:13;99476.29;;;-0.65;29.38
63339;BME280;70568;51.378;-1.342;2024-01-16T11:16:42;99472.47;;;-0.40;30.14
63339;BME280;70568;51.378;-1.342;2024-01-16T11:19:10;99466.00;;;0.48;29.95
63339;BME280;70568;51.378;-1.342;2024-01-16T11:21:38;99468.48;;;-0.82;30.23
63339;BME280;70568;51.378;-1.342;2024-01-16T11:24:06;99462.56;;;-0.15;28.87
63339;BME280;70568;51.378;-1.342;2024-01-16T11:26:34;99455.34;;;0.47;28.87
63339;BME280;70568;51.378;-1.342;2024-01-16T11:29:34;99453.57;;;-1.32;29.10
63339;BME280;70568;51.378;-1.342;2024-01-16T11:32:01;99447.43;;;0.55;28.75
63339;BME280;70568;51.378;-1.342;2024-01-16T11:34:53;99444.41;;;-0.10;29.05
63339;BME280;70568;51.378;-1.342;2024-01-16T11:37:26;99442.10;;;1.59;28.33
63339;BME280;70568;51.378;-1.342;2024-01-16T11:40:20;99438.29;;;0.38;27.93
63339;BME280;70568;51.378;-1.342;2024-01-16T11:42:48;99438.45;;;0.35;28.12
63339;BME280;70568;51.378;-1.342;2024-01-16T11:46:20;99437.53;;;0.68;28.70
63339;BME280;70568;51.378;-1.342;2024-01-16T11:49:02;99433.15;;;-0.06;28.12
63339;BME280;70568;51.378;-1.342;2024-01-16T11:51:28;99433.72;;;1.62;28.69
63339;BME280;70568;51.378;-1.342;2024-01-16T11:53:56;99430.57;;;1.90;28.53
63339;BME280;70568;51.378;-1.342;2024-01-16T11:58:48;99414.29;;;1.47;27.19
63339;BME280;70568;51.378;-1.342;2024-01-16T12:01:16;99414.47;;;1.19;27.45
63339;BME280;70568;51.378;-1.342;2024-01-16T12:03:45;99410.17;;;0.71;28.36
63339;BME280;70568;51.378;-1.342;2024-01-16T12:06:16;99404.07;;;0.02;27.54
63339;BME280;70568;51.378;-1.342;2024-01-16T12:08:43;99400.23;;;1.53;27.44
63339;BME280;70568;51.378;-1.342;2024-01-16T12:11:10;99391.67;;;0.46;26.85
63339;BME280;70568;51.378;-1.342;2024-01-16T12:13:38;99385.28;;;0.44;26.27
63339;BME280;70568;51.378;-1.342;2024-01-16T12:16:06;99380.08;;;1.27;26.80
63339;BME280;70568;51.378;-1.342;2024-01-16T12:18:34;99371.94;;;1.40;25.72
63339;BME280;70568;51.378;-1.342;2024-01-16T12:21:08;99366.47;;;1.82;24.71
63339;BME280;70568;51.378;-1.342;2024-01-16T12:23:35;99361.15;;;1.55;24.67
63339;BME280;70568;51.378;-1.342;2024-01-16T12:26:02;99351.37;;;3.35;24.06
63339;BME280;70568;51.378;-1.342;2024-01-16T12:28:29;99347.80;;;3.14;23.71
63339;BME280;70568;51.378;-1.342;2024-01-16T12:30:56;99341.55;;;2.06;23.63
63339;BME280;70568;51.378;-1.342;2024-01-16T12:33:24;99331.49;;;2.26;24.20
63339;BME280;70568;51.378;-1.342;2024-01-16T12:36:00;99325.78;;;3.06;24.52
63339;BME280;70568;51.378;-1.342;2024-01-16T12:38:27;99324.41;;;2.60;24.12
63339;BME280;70568;51.378;-1.342;2024-01-16T12:40:54;99327.02;;;2.02;23.35
63339;BME280;70568;51.378;-1.342;2024-01-16T12:43:21;99324.21;;;1.87;24.18
63339;BME280;70568;51.378;-1.342;2024-01-16T12:45:55;99320.08;;;2.11;24.54
63339;BME280;70568;51.378;-1.342;2024-01-16T12:48:23;99313.52;;;2.32;24.60
63339;BME280;70568;51.378;-1.342;2024-01-16T12:50:50;99306.48;;;-0.06;25.22
63339;BME280;70568;51.378;-1.342;2024-01-16T12:53:21;99302.43;;;1.03;25.57
63339;BME280;70568;51.378;-1.342;2024-01-16T12:55:57;99300.93;;;1.02;25.53
63339;BME280;70568;51.378;-1.342;2024-01-16T12:58:25;99297.00;;;0.18;25.71